createdAt,value
2023-03-10T00:01:47.959Z,95249.22
2023-03-10T00:06:46.120Z,95239.34
2023-03-10T00:11:39.979Z,95223.00
2023-03-10T00:16:34.683Z,95207.78
2023-03-10T00:21:30.847Z,95195.44
2023-03-10T00:26:28.048Z,95187.22
2023-03-10T00:31:24.060Z,95179.47
2023-03-10T00:36:22.421Z,95183.88
2023-03-10T00:41:18.720Z,95178.13
2023-03-10T00:46:13.138Z,95181.72
2023-03-10T00:51:08.627Z,95177.03
2023-03-10T00:56:08.002Z,95167.41
2023-03-10T01:01:01.875Z,95193.13
2023-03-10T01:05:56.206Z,95184.22
2023-03-10T01:10:50.331Z,95190.56
2023-03-10T01:15:47.753Z,95183.56
2023-03-10T01:20:42.682Z,95171.94
2023-03-10T01:25:35.996Z,95163.03
2023-03-10T01:30:29.497Z,95171.63
2023-03-10T01:35:24.166Z,95160.56
2023-03-10T01:40:19.560Z,95157.22
2023-03-10T01:46:09.266Z,95162.25
2023-03-10T01:51:05.036Z,95162.56
2023-03-10T01:56:04.921Z,95162.47
2023-03-10T02:00:58.394Z,95172.59
2023-03-10T02:05:57.173Z,95171.00
2023-03-10T02:10:52.998Z,95179.56
2023-03-10T02:15:47.691Z,95186.44
2023-03-10T02:20:56.685Z,95176.47
2023-03-10T02:25:59.621Z,95170.16
2023-03-10T02:30:56.026Z,95176.56
2023-03-10T02:35:49.360Z,95169.59
2023-03-10T02:40:49.374Z,95169.72
2023-03-10T02:45:46.948Z,95171.97
2023-03-10T02:50:45.024Z,95179.75
2023-03-10T02:55:38.301Z,95189.78
2023-03-10T03:00:31.781Z,95199.16
2023-03-10T03:05:25.669Z,95205.06
2023-03-10T03:10:21.434Z,95205.38
2023-03-10T03:15:14.753Z,95199.41
2023-03-10T03:20:14.487Z,95192.31
2023-03-10T03:25:09.803Z,95191.69
2023-03-10T03:30:06.550Z,95172.50
2023-03-10T03:35:00.081Z,95146.75
2023-03-10T03:39:53.478Z,95139.97
2023-03-10T03:44:46.838Z,95122.41
2023-03-10T03:49:42.271Z,95127.03
2023-03-10T03:54:35.920Z,95102.56
2023-03-10T03:59:29.290Z,95103.97
2023-03-10T04:04:22.644Z,95079.78
2023-03-10T04:09:18.237Z,95075.00
2023-03-10T04:14:11.723Z,95071.00
2023-03-10T04:19:07.573Z,95068.00
2023-03-10T04:24:00.967Z,95057.94
2023-03-10T04:28:55.878Z,95051.50
2023-03-10T04:33:49.227Z,95031.72
2023-03-10T04:38:42.770Z,95018.38
2023-03-10T04:43:36.360Z,95008.06
2023-03-10T04:48:32.148Z,94998.50
2023-03-10T04:53:25.768Z,94986.63
2023-03-10T04:58:19.278Z,94989.84
2023-03-10T05:03:12.632Z,94971.50
2023-03-10T05:08:08.736Z,94959.72
2023-03-10T05:33:24.504Z,94902.38
2023-03-10T05:38:18.256Z,94885.16
2023-03-10T05:43:11.839Z,94869.50
2023-03-10T05:48:05.789Z,94865.63
2023-03-10T05:53:00.506Z,94867.13
2023-03-10T05:57:53.833Z,94858.34
2023-03-10T06:02:47.183Z,94857.97
2023-03-10T06:07:41.964Z,94835.38
2023-03-10T06:12:36.735Z,94831.88
2023-03-10T06:17:30.045Z,94825.22
2023-03-10T06:22:23.359Z,94823.09
2023-03-10T06:27:16.833Z,94843.91
2023-03-10T06:32:11.642Z,94847.84
2023-03-10T06:37:05.055Z,94836.06
2023-03-10T06:41:58.445Z,94880.63
2023-03-10T06:46:51.809Z,94850.00
2023-03-10T06:51:46.555Z,94851.47
2023-03-10T06:56:39.859Z,94846.06
2023-03-10T07:01:36.677Z,94874.78
2023-03-10T07:06:34.765Z,94884.88
2023-03-10T07:11:30.824Z,94914.88
2023-03-10T07:16:26.599Z,94977.25
2023-03-10T07:21:22.646Z,94998.66
2023-03-10T07:26:18.894Z,95024.09
2023-03-10T07:31:22.356Z,95025.06
2023-03-10T07:36:19.552Z,95046.25
2023-03-10T07:41:29.094Z,95044.47
2023-03-10T07:46:24.538Z,95044.91
2023-03-10T07:51:20.978Z,95032.91
2023-03-10T08:08:33.958Z,95064.78
2023-03-10T08:13:27.389Z,95074.56
2023-03-10T08:18:23.403Z,95073.44
2023-03-10T08:23:16.726Z,95088.22
2023-03-10T08:28:10.089Z,95091.78
2023-03-10T08:33:03.533Z,95119.50
2023-03-10T08:37:58.912Z,95136.94
2023-03-10T08:42:52.291Z,95107.59
2023-03-10T08:47:49.325Z,95066.75
2023-03-10T08:52:45.262Z,95058.09
2023-03-10T08:57:40.120Z,95069.34
2023-03-10T09:02:33.766Z,95072.47
2023-03-10T09:07:27.181Z,95088.72
2023-03-10T09:12:20.537Z,95073.72
2023-03-10T09:17:15.271Z,95088.22
2023-03-10T09:22:09.086Z,95088.09
2023-03-10T09:27:08.408Z,95085.91
2023-03-10T09:32:02.146Z,95081.41
2023-03-10T09:36:56.992Z,95084.47
2023-03-10T09:42:42.780Z,95099.34
2023-03-10T09:47:50.910Z,95130.59
2023-03-10T09:52:59.491Z,95119.25
2023-03-10T09:57:56.696Z,95094.00
2023-03-10T10:03:15.515Z,95077.97
2023-03-10T10:08:22.429Z,95064.22
2023-03-10T10:13:17.837Z,95059.81
2023-03-10T10:18:21.426Z,95061.78
2023-03-10T10:23:25.752Z,95046.56
2023-03-10T10:28:28.268Z,95042.41
2023-03-10T10:33:21.657Z,95035.31
2023-03-10T10:38:37.112Z,95035.31
2023-03-10T10:43:35.746Z,95044.31
2023-03-10T10:48:39.506Z,95060.88
2023-03-10T10:53:36.060Z,95064.97
2023-03-10T10:58:33.768Z,95065.72
2023-03-10T11:03:33.251Z,95054.84
2023-03-10T11:08:42.242Z,95058.88
2023-03-10T11:13:50.375Z,95050.56
2023-03-10T11:18:55.563Z,95070.28
2023-03-10T11:24:04.963Z,95082.56
2023-03-10T11:29:07.548Z,95103.06
2023-03-10T11:34:21.012Z,95129.69
2023-03-10T11:39:27.049Z,95112.97
2023-03-10T11:44:33.350Z,95126.56
2023-03-10T11:49:36.732Z,95119.84
2023-03-10T11:54:37.328Z,95125.03
2023-03-10T11:59:35.620Z,95117.06
2023-03-10T12:04:37.423Z,95109.47
2023-03-10T12:09:44.122Z,95094.19
2023-03-10T12:14:37.724Z,95091.59
2023-03-10T12:19:31.208Z,95093.41
2023-03-10T12:24:47.763Z,95106.56
2023-03-10T12:29:44.066Z,95102.94
2023-03-10T12:34:40.079Z,95116.63
2023-03-10T12:39:39.654Z,95117.56
2023-03-10T12:45:02.597Z,95119.41
2023-03-10T12:50:04.397Z,95117.41
2023-03-10T12:55:21.881Z,95123.97
2023-03-10T13:00:36.849Z,95128.75
2023-03-10T13:05:35.372Z,95132.53
2023-03-10T13:10:35.110Z,95123.06
2023-03-10T13:15:32.834Z,95109.66
2023-03-10T13:20:33.625Z,95095.47
2023-03-10T13:25:27.754Z,95111.72
2023-03-10T13:30:23.736Z,95117.47
2023-03-10T13:35:31.146Z,95121.47
2023-03-10T13:40:24.777Z,95119.31
2023-03-10T13:45:33.987Z,95125.66
2023-03-10T13:50:29.091Z,95127.09
2023-03-10T13:55:25.323Z,95133.66
2023-03-10T14:00:23.403Z,95140.03
2023-03-10T14:05:43.708Z,95147.47
2023-03-10T14:10:37.035Z,95166.78
2023-03-10T14:15:38.243Z,95170.03
2023-03-10T14:20:34.635Z,95186.81
2023-03-10T14:25:29.649Z,95200.78
2023-03-10T14:30:28.064Z,95222.31
2023-03-10T14:35:24.054Z,95221.72
2023-03-10T14:40:19.108Z,95235.91
2023-03-10T14:45:30.605Z,95200.00
2023-03-10T14:50:26.322Z,95227.44
2023-03-10T14:55:20.072Z,95247.69
2023-03-10T15:00:19.395Z,95219.66
2023-03-10T15:05:17.257Z,95240.97
2023-03-10T15:10:12.180Z,95247.13
2023-03-10T15:15:07.221Z,95290.16
2023-03-10T15:20:01.946Z,95298.19
2023-03-10T15:24:55.224Z,95324.97
2023-03-10T15:29:48.566Z,95315.22
2023-03-10T15:34:41.901Z,95333.34
2023-03-10T15:39:37.408Z,95336.81
2023-03-10T15:44:30.941Z,95361.94
2023-03-10T15:49:24.569Z,95357.94
2023-03-10T15:54:18.032Z,95386.50
2023-03-10T15:59:12.801Z,95409.22
2023-03-10T16:04:06.899Z,95429.44
2023-03-10T16:09:00.476Z,95447.53
2023-03-10T16:13:53.933Z,95454.13
2023-03-10T16:18:49.224Z,95459.91
2023-03-10T16:23:43.045Z,95465.25
2023-03-10T16:28:37.405Z,95423.22
2023-03-10T16:33:30.997Z,95425.69
2023-03-10T16:38:25.830Z,95445.44
2023-03-10T16:43:19.793Z,95463.59
2023-03-10T16:48:13.103Z,95447.13
2023-03-10T16:53:07.160Z,95454.66
2023-03-10T16:58:01.927Z,95430.94
2023-03-10T17:02:56.528Z,95448.59
2023-03-10T17:07:55.841Z,95506.28
2023-03-10T17:12:49.783Z,95535.91
2023-03-10T17:17:44.873Z,95427.38
2023-03-10T17:22:39.104Z,95440.97
2023-03-10T17:27:32.893Z,95439.75
2023-03-10T17:32:27.625Z,95427.63
2023-03-10T17:37:22.495Z,95420.56
2023-03-10T17:42:15.972Z,95438.94
2023-03-10T17:47:09.343Z,95418.34
2023-03-10T17:52:02.711Z,95479.19
2023-03-10T17:56:57.632Z,95445.56
2023-03-10T18:01:51.010Z,95468.41
2023-03-10T18:06:44.609Z,95459.34
2023-03-10T18:11:38.317Z,95474.91
2023-03-10T18:16:36.616Z,95495.56
2023-03-10T18:21:29.979Z,95502.63
2023-03-10T18:26:27.565Z,95494.69
2023-03-10T18:31:24.088Z,95487.44
2023-03-10T18:36:21.328Z,95521.69
2023-03-10T18:41:15.197Z,95504.25
2023-03-10T18:46:08.543Z,95489.53
2023-03-10T18:51:02.029Z,95509.97
2023-03-10T18:55:58.967Z,95512.34
2023-03-10T19:00:52.677Z,95534.03
2023-03-10T19:05:46.598Z,95550.44
2023-03-10T19:10:40.583Z,95567.69
2023-03-10T19:15:35.935Z,95567.09
2023-03-10T19:20:29.396Z,95553.53
2023-03-10T19:25:23.874Z,95586.38
2023-03-10T19:30:21.034Z,95570.31
2023-03-10T19:35:18.515Z,95559.75
2023-03-10T19:40:16.015Z,95569.44
2023-03-10T19:45:11.512Z,95585.28
2023-03-10T19:50:05.953Z,95596.16
2023-03-10T19:55:00.925Z,95600.59
2023-03-10T19:59:55.563Z,95628.22
2023-03-10T20:04:50.500Z,95635.31
2023-03-10T20:09:43.962Z,95639.09
2023-03-10T20:14:38.676Z,95659.09
2023-03-10T20:19:32.009Z,95673.78
2023-03-10T20:24:25.462Z,95698.66
2023-03-10T20:29:18.865Z,95727.56
2023-03-10T20:34:22.134Z,95732.63
2023-03-10T20:39:15.719Z,95723.28
2023-03-10T20:44:14.089Z,95740.34
2023-03-10T20:49:07.444Z,95750.63
2023-03-10T20:54:02.189Z,95760.81
2023-03-10T20:58:59.449Z,95754.78
2023-03-10T21:03:54.778Z,95780.69
2023-03-10T21:08:48.796Z,95785.66
2023-03-10T21:13:43.586Z,95790.28
2023-03-10T21:18:37.692Z,95792.25
2023-03-10T21:23:31.038Z,95794.03
2023-03-10T21:28:24.390Z,95801.72
2023-03-10T21:33:22.863Z,95801.72
2023-03-10T21:38:16.120Z,95820.88
2023-03-10T21:43:09.464Z,95859.56
2023-03-10T21:48:04.049Z,95882.25
2023-03-10T21:52:58.817Z,95888.06
2023-03-10T21:57:52.677Z,95895.03
2023-03-10T22:02:46.535Z,95882.84
2023-03-10T22:07:40.178Z,95886.06
2023-03-10T22:12:35.030Z,95897.50
2023-03-10T22:17:28.919Z,95908.75
2023-03-10T22:22:22.979Z,95926.72
2023-03-10T22:27:16.524Z,95920.09
2023-03-10T22:32:11.320Z,95931.00
2023-03-10T22:37:04.796Z,95906.16
2023-03-10T22:41:58.124Z,95919.66
2023-03-10T22:46:52.031Z,95942.81
2023-03-10T22:51:47.611Z,95933.41
2023-03-10T22:56:40.940Z,95931.66
2023-03-10T23:01:34.432Z,95932.94
2023-03-10T23:06:29.171Z,95936.97
2023-03-10T23:11:24.339Z,95944.44
2023-03-10T23:16:19.822Z,95954.09
2023-03-10T23:21:13.337Z,95961.19
2023-03-10T23:26:08.297Z,95985.34
2023-03-10T23:31:03.059Z,95964.91
2023-03-10T23:35:56.495Z,95978.38
2023-03-10T23:40:50.662Z,95973.50
2023-03-10T23:51:16.945Z,95981.34
2023-03-10T23:56:10.885Z,95975.38
